createdAt,value
2017-11-25T00:00:15.403Z,23.77
2017-11-25T00:02:42.892Z,27.47
2017-11-25T00:05:10.445Z,24.87
2017-11-25T00:07:37.950Z,21.87
2017-11-25T00:10:05.441Z,25.90
2017-11-25T00:12:32.965Z,32.00
2017-11-25T00:15:00.460Z,24.60
2017-11-25T00:17:27.979Z,21.73
2017-11-25T00:19:55.498Z,20.40
2017-11-25T00:22:23.026Z,26.53
2017-11-25T00:24:50.523Z,17.37
2017-11-25T00:27:18.101Z,21.27
2017-11-25T00:29:45.615Z,19.93
2017-11-25T00:32:13.116Z,19.30
2017-11-25T00:34:40.660Z,22.10
2017-11-25T00:37:08.157Z,20.00
2017-11-25T00:39:35.652Z,18.87
2017-11-25T00:42:03.202Z,21.83
2017-11-25T00:44:30.689Z,19.60
2017-11-25T00:46:58.206Z,25.03
2017-11-25T00:49:25.829Z,19.70
2017-11-25T00:51:53.326Z,20.70
2017-11-25T00:54:20.854Z,23.60
2017-11-25T00:56:48.341Z,22.47
2017-11-25T00:59:15.874Z,23.10
2017-11-25T01:01:43.403Z,20.63
2017-11-25T01:06:44.986Z,22.83
2017-11-25T01:09:12.544Z,22.50
2017-11-25T01:11:40.042Z,32.03
2017-11-25T01:14:07.565Z,22.37
2017-11-25T01:16:35.061Z,26.53
2017-11-25T01:19:02.584Z,27.10
2017-11-25T01:21:30.076Z,25.60
2017-11-25T01:23:57.616Z,34.07
2017-11-25T01:26:25.116Z,29.80
2017-11-25T01:28:52.654Z,23.07
2017-11-25T01:31:20.213Z,36.70
2017-11-25T01:33:47.815Z,29.60
2017-11-25T01:36:15.312Z,23.47
2017-11-25T01:38:42.889Z,29.87
2017-11-25T01:41:10.403Z,31.00
2017-11-25T01:43:37.900Z,27.83
2017-11-25T01:46:05.527Z,29.13
2017-11-25T01:48:33.104Z,23.77
2017-11-25T01:51:00.593Z,24.57
2017-11-25T01:53:28.122Z,23.30
2017-11-25T01:55:55.610Z,28.10
2017-11-25T01:58:23.169Z,23.67
2017-11-25T02:00:50.699Z,19.50
2017-11-25T02:03:18.198Z,25.17
2017-11-25T02:05:45.688Z,26.87
2017-11-25T02:08:13.215Z,29.93
2017-11-25T02:10:40.737Z,25.27
2017-11-25T02:13:08.235Z,19.57
2017-11-25T02:15:35.746Z,29.43
2017-11-25T02:18:03.278Z,22.40
2017-11-25T02:20:30.852Z,25.60
2017-11-25T02:22:58.351Z,21.67
2017-11-25T02:25:25.863Z,20.00
2017-11-25T02:27:53.527Z,22.70
2017-11-25T02:30:21.048Z,21.47
2017-11-25T02:32:48.544Z,22.17
2017-11-25T02:35:16.129Z,24.70
2017-11-25T02:37:43.659Z,24.10
2017-11-25T02:40:11.219Z,22.83
2017-11-25T02:42:38.750Z,28.20
2017-11-25T02:45:06.247Z,34.00
2017-11-25T02:47:33.813Z,24.00
2017-11-25T02:50:01.360Z,24.77
2017-11-25T02:52:28.933Z,22.50
2017-11-25T02:54:56.433Z,26.40
2017-11-25T02:57:23.954Z,25.83
2017-11-25T02:59:51.453Z,29.90
2017-11-25T03:02:18.984Z,26.90
2017-11-25T03:04:46.488Z,22.63
2017-11-25T03:07:14.025Z,19.93
2017-11-25T03:09:41.518Z,24.47
2017-11-25T03:12:09.082Z,21.30
2017-11-25T03:14:36.638Z,21.77
2017-11-25T03:17:04.136Z,23.57
2017-11-25T03:19:31.631Z,22.80
2017-11-25T03:21:59.181Z,21.10
2017-11-25T03:24:26.677Z,22.57
2017-11-25T03:26:54.170Z,18.60
2017-11-25T03:29:21.717Z,20.93
2017-11-25T03:31:49.222Z,17.80
2017-11-25T03:34:16.909Z,18.97
2017-11-25T03:36:44.440Z,19.63
2017-11-25T03:39:11.935Z,19.00
2017-11-25T03:41:39.500Z,17.23
2017-11-25T03:44:07.025Z,21.63
2017-11-25T03:46:34.520Z,20.43
2017-11-25T03:49:02.056Z,19.97
2017-11-25T03:51:29.564Z,22.33
2017-11-25T03:53:57.061Z,20.43
2017-11-25T03:56:24.631Z,23.40
2017-11-25T03:58:52.121Z,19.47
2017-11-25T04:01:19.661Z,19.60
2017-11-25T04:03:47.200Z,19.70
2017-11-25T04:06:14.707Z,17.10
2017-11-25T04:08:42.234Z,19.93
2017-11-25T04:11:09.771Z,17.73
2017-11-25T04:13:37.270Z,18.50
2017-11-25T04:16:04.777Z,21.60
2017-11-25T04:18:32.322Z,21.43
2017-11-25T04:20:59.813Z,21.57
2017-11-25T04:23:27.381Z,23.37
2017-11-25T04:25:54.904Z,21.27
2017-11-25T04:28:22.405Z,22.00
2017-11-25T04:30:49.937Z,21.40
2017-11-25T04:33:17.433Z,21.17
2017-11-25T04:35:44.973Z,21.90
2017-11-25T04:38:12.513Z,18.90
2017-11-25T04:40:40.091Z,28.17
2017-11-25T04:43:07.587Z,18.63
2017-11-25T04:45:35.073Z,20.70
2017-11-25T04:48:02.595Z,20.27
2017-11-25T04:50:30.084Z,18.50
2017-11-25T04:52:57.610Z,21.73
2017-11-25T04:55:25.110Z,20.83
2017-11-25T04:57:52.600Z,20.37
2017-11-25T05:00:28.867Z,22.57
2017-11-25T05:02:56.369Z,19.27
2017-11-25T05:05:23.880Z,22.20
2017-11-25T05:07:51.413Z,21.23
2017-11-25T05:10:18.903Z,21.30
2017-11-25T05:12:46.449Z,23.20
2017-11-25T05:15:13.972Z,20.00
2017-11-25T05:17:41.462Z,19.13
2017-11-25T05:20:08.964Z,24.20
2017-11-25T05:22:36.535Z,21.70
2017-11-25T05:25:04.031Z,23.00
2017-11-25T05:27:31.529Z,21.30
2017-11-25T05:29:59.042Z,21.20
2017-11-25T05:32:26.533Z,20.97
2017-11-25T05:34:54.093Z,23.27
2017-11-25T05:37:21.599Z,17.67
2017-11-25T05:39:49.093Z,15.00
2017-11-25T05:42:16.646Z,20.00
2017-11-25T05:44:44.141Z,18.73
2017-11-25T05:47:11.682Z,17.37
2017-11-25T05:49:39.224Z,17.70
2017-11-25T05:52:06.738Z,19.40
2017-11-25T05:54:34.261Z,17.10
2017-11-25T05:57:01.800Z,21.80
2017-11-25T05:59:29.604Z,15.27
2017-11-25T06:01:57.093Z,18.07
2017-11-25T06:04:24.628Z,16.10
2017-11-25T06:06:52.253Z,15.80
2017-11-25T06:09:19.743Z,16.40
2017-11-25T06:11:47.282Z,16.60
2017-11-25T06:14:14.826Z,15.10
2017-11-25T06:16:42.385Z,18.63
2017-11-25T06:19:09.923Z,16.37
2017-11-25T06:21:37.413Z,15.23
2017-11-25T06:24:04.921Z,14.60
2017-11-25T06:26:32.449Z,17.07
2017-11-25T06:28:59.974Z,17.67
2017-11-25T06:31:27.515Z,15.60
2017-11-25T06:33:55.008Z,17.57
2017-11-25T06:36:22.550Z,15.77
2017-11-25T06:38:50.090Z,16.20
2017-11-25T06:41:17.666Z,14.57
2017-11-25T06:43:45.231Z,15.07
2017-11-25T06:46:12.748Z,18.00
2017-11-25T06:48:40.245Z,14.30
2017-11-25T06:51:07.784Z,13.47
2017-11-25T06:53:35.295Z,14.90
2017-11-25T06:56:02.819Z,16.30
2017-11-25T06:58:30.349Z,14.07
2017-11-25T07:00:57.853Z,14.60
2017-11-25T07:03:25.356Z,12.37
2017-11-25T07:05:52.904Z,12.43
2017-11-25T07:08:20.406Z,14.97
2017-11-25T07:10:47.926Z,9.77
2017-11-25T07:13:15.434Z,9.47
2017-11-25T07:15:42.989Z,9.23
2017-11-25T07:18:10.512Z,12.83
2017-11-25T07:20:38.105Z,14.83
2017-11-25T07:23:05.629Z,9.77
2017-11-25T07:25:33.162Z,8.70
2017-11-25T07:28:00.659Z,12.67
2017-11-25T07:30:28.176Z,11.10
2017-11-25T07:32:55.792Z,13.60
2017-11-25T07:35:23.295Z,12.03
2017-11-25T07:37:50.789Z,10.00
2017-11-25T07:40:18.326Z,8.80
2017-11-25T07:42:45.845Z,8.37
2017-11-25T07:45:13.329Z,9.17
2017-11-25T07:47:40.947Z,8.60
2017-11-25T07:50:08.446Z,10.53
2017-11-25T07:52:35.935Z,8.03
2017-11-25T07:55:03.525Z,9.03
2017-11-25T07:57:31.022Z,10.50
2017-11-25T07:59:58.560Z,11.20
2017-11-25T08:02:26.200Z,9.43
2017-11-25T08:04:53.756Z,11.13
2017-11-25T08:07:21.253Z,11.23
2017-11-25T08:09:48.773Z,9.80
2017-11-25T08:12:16.269Z,9.60
2017-11-25T08:14:43.815Z,8.97
2017-11-25T08:17:11.462Z,9.80
2017-11-25T08:19:38.949Z,9.90
2017-11-25T08:22:06.441Z,10.10
2017-11-25T08:24:33.977Z,9.00
2017-11-25T08:27:01.508Z,10.50
2017-11-25T08:29:29.004Z,9.10
2017-11-25T08:31:56.532Z,9.30
2017-11-25T08:34:24.033Z,8.80
2017-11-25T08:36:51.524Z,7.70
2017-11-25T08:39:19.077Z,7.60
2017-11-25T08:41:46.562Z,6.17
2017-11-25T08:44:14.053Z,6.00
2017-11-25T08:46:41.573Z,6.53
2017-11-25T08:49:09.057Z,6.57
2017-11-25T08:51:36.550Z,5.70
2017-11-25T08:54:04.088Z,6.30
2017-11-25T08:56:31.598Z,7.20
2017-11-25T08:58:59.088Z,6.50
2017-11-25T09:01:26.626Z,7.37
2017-11-25T09:03:54.117Z,6.40
2017-11-25T09:06:21.610Z,6.00
2017-11-25T09:08:49.141Z,6.43
2017-11-25T09:11:16.755Z,6.13
2017-11-25T09:13:44.267Z,6.07
2017-11-25T09:16:11.799Z,6.30
2017-11-25T09:18:39.289Z,6.07
2017-11-25T09:21:06.879Z,6.30
2017-11-25T09:23:34.410Z,5.93
2017-11-25T09:26:01.901Z,4.23
2017-11-25T09:28:29.394Z,4.93
2017-11-25T09:30:57.066Z,5.77
2017-11-25T09:33:24.563Z,5.70
2017-11-25T09:35:52.126Z,5.13
2017-11-25T09:38:19.655Z,5.60
2017-11-25T09:40:47.140Z,5.67
2017-11-25T09:43:14.625Z,5.00
2017-11-25T09:45:43.130Z,5.40
2017-11-25T09:48:10.614Z,5.20
2017-11-25T09:50:38.196Z,4.60
2017-11-25T09:53:05.709Z,5.10
2017-11-25T09:55:33.255Z,6.53
2017-11-25T09:58:00.738Z,5.00
2017-11-25T10:00:28.366Z,7.17
2017-11-25T10:02:55.899Z,7.13
2017-11-25T10:05:23.398Z,7.80
2017-11-25T10:07:50.931Z,9.27
2017-11-25T10:10:18.446Z,7.03
2017-11-25T10:12:45.929Z,7.60
2017-11-25T10:15:13.467Z,9.10
2017-11-25T10:17:40.958Z,7.63
2017-11-25T10:20:08.454Z,7.73
2017-11-25T10:22:35.993Z,7.13
2017-11-25T10:25:03.535Z,6.53
2017-11-25T10:27:31.036Z,6.50
2017-11-25T10:29:58.558Z,6.77
2017-11-25T10:32:26.040Z,6.20
2017-11-25T10:34:53.562Z,4.60
2017-11-25T10:37:21.086Z,4.60
2017-11-25T10:39:48.577Z,5.67
2017-11-25T10:42:16.119Z,4.67
2017-11-25T10:44:43.615Z,6.17
2017-11-25T10:47:11.163Z,5.67
2017-11-25T10:49:38.706Z,5.70
2017-11-25T10:52:06.215Z,3.37
2017-11-25T10:54:33.702Z,4.40
2017-11-25T10:57:01.234Z,4.13
2017-11-25T10:59:28.782Z,5.13
2017-11-25T11:01:56.288Z,5.07
2017-11-25T11:04:23.804Z,5.27
2017-11-25T11:06:51.328Z,6.07
2017-11-25T11:09:18.894Z,3.50
2017-11-25T11:11:46.443Z,4.87
2017-11-25T11:14:13.921Z,4.20
2017-11-25T11:16:41.433Z,4.10
2017-11-25T11:19:08.930Z,4.13
2017-11-25T11:21:36.569Z,3.97
2017-11-25T11:24:04.060Z,3.80
2017-11-25T11:26:31.549Z,1.90
2017-11-25T11:28:59.140Z,2.73
2017-11-25T11:31:26.628Z,2.70
2017-11-25T11:33:54.132Z,2.80
2017-11-25T11:36:21.664Z,2.97
2017-11-25T11:38:49.151Z,2.60
2017-11-25T11:41:16.639Z,2.83
2017-11-25T11:43:44.291Z,2.23
2017-11-25T11:46:11.814Z,2.07
2017-11-25T11:48:39.356Z,2.60
2017-11-25T11:51:06.873Z,2.60
2017-11-25T11:53:34.354Z,2.60
2017-11-25T11:56:01.888Z,2.13
2017-11-25T11:58:29.434Z,2.33
2017-11-25T12:00:56.947Z,2.63
2017-11-25T12:03:24.499Z,2.60
2017-11-25T12:05:51.980Z,2.97
2017-11-25T12:08:19.515Z,2.50
2017-11-25T12:10:47.029Z,3.90
2017-11-25T12:13:14.536Z,3.53
2017-11-25T12:15:42.026Z,2.67
2017-11-25T12:18:09.729Z,2.80
2017-11-25T12:20:37.306Z,2.63
2017-11-25T12:23:04.729Z,2.10
2017-11-25T12:25:32.281Z,3.27
2017-11-25T12:27:59.816Z,3.20
2017-11-25T12:30:27.332Z,3.73
2017-11-25T12:32:55.109Z,3.10
2017-11-25T12:35:22.613Z,2.80
2017-11-25T12:37:50.174Z,3.33
2017-11-25T12:40:17.749Z,3.30
2017-11-25T12:42:46.033Z,3.10
2017-11-25T12:45:13.736Z,2.73
2017-11-25T12:47:41.268Z,2.17
2017-11-25T12:50:08.817Z,3.67
2017-11-25T12:52:36.305Z,3.57
2017-11-25T12:55:03.913Z,3.23
2017-11-25T12:57:31.397Z,3.03
2017-11-25T12:59:58.884Z,3.30
2017-11-25T13:02:26.429Z,3.50
2017-11-25T13:04:53.919Z,3.23
2017-11-25T13:07:21.408Z,2.40
2017-11-25T13:09:48.926Z,2.67
2017-11-25T13:12:16.417Z,3.10
2017-11-25T13:14:43.996Z,3.50
2017-11-25T13:17:11.487Z,3.30
2017-11-25T13:19:38.993Z,3.50
2017-11-25T13:22:06.509Z,3.47
2017-11-25T13:24:33.989Z,3.60
2017-11-25T13:27:01.583Z,3.47
2017-11-25T13:29:29.163Z,2.90
2017-11-25T13:31:56.668Z,4.30
2017-11-25T13:34:24.175Z,3.37
2017-11-25T13:36:51.705Z,2.10
2017-11-25T13:39:19.185Z,3.37
2017-11-25T13:41:46.737Z,3.13
2017-11-25T13:44:14.292Z,3.50
2017-11-25T13:46:41.778Z,2.87
2017-11-25T13:49:09.253Z,5.03
2017-11-25T13:51:36.783Z,3.10
2017-11-25T13:54:04.278Z,3.50
2017-11-25T13:56:31.798Z,3.20
2017-11-25T13:58:59.329Z,2.97
2017-11-25T14:01:26.840Z,4.80
2017-11-25T14:03:54.361Z,2.00
2017-11-25T14:06:21.862Z,2.87
2017-11-25T14:08:49.345Z,3.20
2017-11-25T14:11:16.885Z,3.70
2017-11-25T14:13:44.413Z,3.90
2017-11-25T14:16:11.912Z,2.70
2017-11-25T14:18:39.457Z,3.07
2017-11-25T14:21:06.965Z,3.67
2017-11-25T14:23:34.453Z,2.90
2017-11-25T14:26:01.965Z,3.10
2017-11-25T14:28:29.459Z,2.87
2017-11-25T14:30:56.990Z,3.10
2017-11-25T14:33:24.517Z,3.93
2017-11-25T14:35:51.996Z,4.73
2017-11-25T14:38:19.532Z,3.53
2017-11-25T14:40:47.029Z,3.93
2017-11-25T14:43:14.591Z,4.50
2017-11-25T14:45:42.155Z,3.30
2017-11-25T14:48:09.642Z,3.80
2017-11-25T14:50:37.149Z,1.87
2017-11-25T14:53:04.656Z,2.03
2017-11-25T14:55:32.139Z,3.03
2017-11-25T14:57:59.658Z,3.20
2017-11-25T15:00:27.153Z,2.87
2017-11-25T15:02:54.662Z,2.63
2017-11-25T15:05:22.198Z,4.00
2017-11-25T15:07:49.718Z,4.37
2017-11-25T15:10:17.214Z,5.10
2017-11-25T15:12:44.893Z,5.17
2017-11-25T15:15:12.429Z,5.17
2017-11-25T15:17:39.940Z,10.50
2017-11-25T15:20:07.453Z,5.43
2017-11-25T15:22:34.968Z,13.43
2017-11-25T15:25:02.708Z,8.50
2017-11-25T15:27:30.198Z,7.00
2017-11-25T15:29:58.581Z,6.70
2017-11-25T15:32:26.128Z,7.00
2017-11-25T15:34:53.625Z,3.90
2017-11-25T15:37:21.121Z,3.40
2017-11-25T15:39:48.657Z,2.87
2017-11-25T15:42:17.023Z,2.43
2017-11-25T15:44:44.526Z,3.93
2017-11-25T15:47:12.087Z,4.50
2017-11-25T15:49:39.588Z,2.53
2017-11-25T15:52:07.123Z,3.57
2017-11-25T15:54:34.683Z,4.00
2017-11-25T15:57:02.174Z,3.80
2017-11-25T15:59:29.744Z,5.10
2017-11-25T16:01:57.236Z,5.87
2017-11-25T16:04:24.725Z,5.80
2017-11-25T16:06:52.260Z,7.37
2017-11-25T16:09:19.780Z,5.80
2017-11-25T16:11:47.340Z,6.93
2017-11-25T16:14:14.841Z,7.67
2017-11-25T16:16:42.381Z,7.80
2017-11-25T16:19:09.894Z,10.50
2017-11-25T16:21:37.414Z,6.17
2017-11-25T16:24:04.951Z,5.13
2017-11-25T16:26:32.461Z,8.07
2017-11-25T16:28:59.957Z,7.43
2017-11-25T16:31:27.494Z,5.03
2017-11-25T16:33:54.986Z,5.10
2017-11-25T16:36:22.503Z,5.43
2017-11-25T16:38:50.079Z,5.67
2017-11-25T16:41:17.573Z,4.80
2017-11-25T16:43:45.113Z,4.63
2017-11-25T16:46:13.021Z,4.03
2017-11-25T16:48:40.577Z,4.20
2017-11-25T16:51:08.104Z,6.47
2017-11-25T16:53:35.640Z,5.60
2017-11-25T16:56:03.139Z,4.87
2017-11-25T16:58:30.683Z,6.63
2017-11-25T17:00:58.172Z,6.60
2017-11-25T17:03:25.665Z,6.20
2017-11-25T17:05:53.189Z,6.00
2017-11-25T17:08:20.686Z,6.50
2017-11-25T17:10:48.187Z,5.83
2017-11-25T17:13:15.733Z,6.00
2017-11-25T17:15:43.281Z,7.30
2017-11-25T17:18:11.634Z,5.93
2017-11-25T17:20:39.193Z,6.40
2017-11-25T17:23:06.685Z,6.07
2017-11-25T17:25:34.173Z,5.90
2017-11-25T17:28:01.781Z,7.13
2017-11-25T17:30:29.290Z,6.83
2017-11-25T17:32:56.790Z,6.40
2017-11-25T17:35:24.378Z,6.50
2017-11-25T17:37:51.961Z,8.10
2017-11-25T17:40:19.469Z,7.40
2017-11-25T17:42:47.056Z,7.83
2017-11-25T17:45:14.619Z,8.27
2017-11-25T17:47:42.121Z,7.50
2017-11-25T17:50:09.930Z,8.37
2017-11-25T17:52:37.438Z,8.10
2017-11-25T17:55:04.937Z,10.40
2017-11-25T17:57:32.493Z,8.43
2017-11-25T18:00:00.012Z,8.37
2017-11-25T18:02:27.529Z,8.30
2017-11-25T18:04:55.052Z,7.47
2017-11-25T18:07:22.549Z,8.20
2017-11-25T18:09:50.074Z,7.67
2017-11-25T18:12:17.573Z,9.00
2017-11-25T18:14:45.070Z,10.80
2017-11-25T18:17:12.683Z,13.10
2017-11-25T18:19:40.241Z,10.60
2017-11-25T18:22:08.013Z,11.63
2017-11-25T18:24:36.465Z,13.97
2017-11-25T18:27:03.982Z,14.00
2017-11-25T18:29:31.501Z,11.17
2017-11-25T18:31:59.060Z,11.57
2017-11-25T18:34:26.626Z,11.27
2017-11-25T18:36:54.121Z,11.20
2017-11-25T18:39:21.840Z,12.17
2017-11-25T18:41:49.401Z,11.10
2017-11-25T18:44:16.905Z,15.10
2017-11-25T18:46:44.441Z,14.37
2017-11-25T18:49:11.940Z,11.20
2017-11-25T18:51:39.458Z,13.87
2017-11-25T18:54:06.994Z,14.90
2017-11-25T18:56:34.525Z,14.27
2017-11-25T18:59:02.025Z,18.87
2017-11-25T19:01:29.579Z,16.43
2017-11-25T19:03:58.089Z,16.20
2017-11-25T19:06:25.593Z,15.97
2017-11-25T19:08:53.149Z,15.90
2017-11-25T19:11:20.656Z,22.20
2017-11-25T19:13:48.153Z,14.30
2017-11-25T19:16:15.685Z,26.17
2017-11-25T19:18:44.164Z,16.17
2017-11-25T19:21:11.699Z,18.27
2017-11-25T19:23:39.265Z,14.40
2017-11-25T19:26:06.775Z,9.80
2017-11-25T19:28:34.298Z,15.27
2017-11-25T19:31:01.846Z,17.53
2017-11-25T19:33:29.365Z,12.43
2017-11-25T19:35:56.860Z,13.83
2017-11-25T19:38:24.409Z,12.00
2017-11-25T19:40:51.910Z,13.27
2017-11-25T19:43:20.075Z,15.53
2017-11-25T19:45:47.610Z,22.10
2017-11-25T19:48:16.124Z,14.10
2017-11-25T19:50:43.627Z,20.80
2017-11-25T19:53:11.151Z,17.80
2017-11-25T19:55:38.653Z,13.37
2017-11-25T19:58:06.190Z,11.40
2017-11-25T20:03:07.495Z,13.67
2017-11-25T20:05:35.033Z,13.70
2017-11-25T20:08:02.534Z,19.93
2017-11-25T20:10:30.079Z,22.53
2017-11-25T20:12:57.761Z,16.63
2017-11-25T20:15:25.269Z,13.27
2017-11-25T20:17:52.783Z,23.80
2017-11-25T20:20:20.338Z,16.30
2017-11-25T20:22:47.862Z,22.40
2017-11-25T20:27:49.098Z,17.43
2017-11-25T20:30:16.622Z,31.50
2017-11-25T20:32:44.187Z,24.27
2017-11-25T20:35:11.734Z,36.37
2017-11-25T20:37:39.250Z,27.03
2017-11-25T20:40:06.754Z,14.70
2017-11-25T20:42:34.288Z,17.50
2017-11-25T20:45:01.798Z,22.70
2017-11-25T20:47:29.306Z,20.57
2017-11-25T20:49:56.849Z,25.47
2017-11-25T20:52:24.366Z,15.90
2017-11-25T20:54:51.882Z,16.77
2017-11-25T20:57:19.433Z,18.20
2017-11-25T20:59:47.083Z,15.90
2017-11-25T21:02:14.665Z,30.37
2017-11-25T21:04:42.170Z,22.30
2017-11-25T21:07:09.678Z,25.13
2017-11-25T21:09:37.206Z,22.43
2017-11-25T21:12:04.718Z,24.43
2017-11-25T21:14:32.268Z,21.57
2017-11-25T21:16:59.771Z,28.37
2017-11-25T21:19:27.280Z,14.20
2017-11-25T21:21:54.819Z,27.37
2017-11-25T21:24:22.322Z,21.30
2017-11-25T21:26:49.823Z,18.87
2017-11-25T21:29:17.370Z,24.00
2017-11-25T21:31:44.877Z,22.47
2017-11-25T21:34:12.404Z,23.80
2017-11-25T21:36:39.937Z,22.20
2017-11-25T21:39:07.454Z,23.70
2017-11-25T21:41:34.958Z,32.10
2017-11-25T21:44:02.516Z,27.27
2017-11-25T21:46:30.026Z,24.97
2017-11-25T21:48:57.559Z,20.37
2017-11-25T21:51:25.097Z,20.30
2017-11-25T21:53:52.601Z,30.90
2017-11-25T21:56:20.104Z,19.70
2017-11-25T21:58:47.640Z,29.87
2017-11-25T22:01:15.147Z,27.50
2017-11-25T22:03:42.662Z,22.03
2017-11-25T22:06:10.195Z,34.70
2017-11-25T22:08:37.695Z,27.40
2017-11-25T22:11:05.198Z,23.00
2017-11-25T22:13:32.738Z,25.50
2017-11-25T22:16:00.238Z,30.57
2017-11-25T22:18:27.742Z,33.40
2017-11-25T22:20:55.281Z,28.13
2017-11-25T22:23:22.785Z,25.60
2017-11-25T22:25:50.830Z,38.93
2017-11-25T22:28:18.365Z,36.40
2017-11-25T22:30:45.870Z,21.37
2017-11-25T22:33:13.432Z,22.50
2017-11-25T22:35:40.941Z,20.03
2017-11-25T22:38:08.455Z,20.50
2017-11-25T22:40:35.993Z,21.70
2017-11-25T22:43:03.501Z,25.73
2017-11-25T22:45:31.019Z,25.27
2017-11-25T22:47:58.590Z,21.10
2017-11-25T22:50:26.114Z,22.40
2017-11-25T22:52:53.615Z,35.77
2017-11-25T22:55:21.154Z,21.70
2017-11-25T22:57:48.662Z,21.90
2017-11-25T23:00:16.197Z,25.00
2017-11-25T23:02:43.698Z,25.97
2017-11-25T23:05:11.226Z,24.93
2017-11-25T23:07:38.778Z,22.37
2017-11-25T23:10:06.291Z,43.80
2017-11-25T23:12:33.797Z,31.73
2017-11-25T23:15:01.353Z,20.67
2017-11-25T23:17:28.867Z,22.10
2017-11-25T23:19:56.366Z,24.87
2017-11-25T23:22:23.899Z,36.27
2017-11-25T23:24:51.447Z,22.60
2017-11-25T23:27:18.954Z,23.57
2017-11-25T23:29:46.454Z,31.57
2017-11-25T23:32:14.012Z,42.77
2017-11-25T23:34:41.523Z,25.13
2017-11-25T23:37:09.046Z,24.73
2017-11-25T23:39:36.583Z,28.07
2017-11-25T23:42:04.129Z,26.70
2017-11-25T23:44:31.676Z,26.70
2017-11-25T23:46:59.210Z,26.87
2017-11-25T23:49:26.715Z,28.43
2017-11-25T23:51:54.253Z,27.50
2017-11-25T23:54:21.789Z,40.73
2017-11-25T23:56:49.312Z,25.33
2017-11-25T23:59:16.810Z,27.07
